Time;durP1;ratioP1;P1;durP2;ratioP2;P2;SDS_P1;SDS_P2;PMS_P1;PMS_P2;Temp;Humidity;BMP_temperature;BMP_pressure;BME280_temperature;BME280_humidity;BME280_pressure;Samples;Min_cycle;Max_cycle;Signal;HPM_P1;HPM_P2
2023/05/29 00:01:27;;;;;;;3.80;2.80;;;;;;;12.85;47.78;100616.06;110114;1276;140268;-70
2023/05/29 00:03:54;;;;;;;4.40;3.20;;;;;;;12.82;47.47;100613.48;110397;1270;22200;-69
2023/05/29 00:06:23;;;;;;;5.30;2.40;;;;;;;12.81;47.45;100613.45;110179;1276;137612;-69
2023/05/29 00:08:50;;;;;;;3.70;2.70;;;;;;;12.81;47.30;100610.98;110212;1270;137778;-69
2023/05/29 00:11:18;;;;;;;2.40;2.10;;;;;;;12.83;47.03;100612.69;110202;1271;22084;-70
2023/05/29 00:13:45;;;;;;;3.80;3.00;;;;;;;12.85;47.28;100610.95;110119;1271;138256;-67
2023/05/29 00:16:12;;;;;;;3.00;2.50;;;;;;;12.85;47.91;100611.57;110182;1271;139653;-67
2023/05/29 00:18:45;;;;;;;3.10;2.80;;;;;;;12.82;47.71;100614.65;110238;1276;22754;-71
2023/05/29 00:21:13;;;;;;;4.60;2.50;;;;;;;12.75;48.28;100616.95;110076;1271;138370;-69
2023/05/29 00:23:41;;;;;;;12.00;3.30;;;;;;;12.66;48.00;100615.90;110358;1269;22232;-70
2023/05/29 00:26:11;;;;;;;3.30;2.80;;;;;;;12.63;47.94;100616.31;110126;1276;137515;-69
2023/05/29 00:28:39;;;;;;;2.80;2.60;;;;;;;12.60;48.93;100619.92;110118;1271;138340;-70
2023/05/29 00:31:07;;;;;;;4.30;1.90;;;;;;;12.53;50.10;100618.40;110099;1271;22214;-71
2023/05/29 00:33:34;;;;;;;2.40;2.10;;;;;;;12.45;50.02;100619.23;110105;1276;138509;-72
2023/05/29 00:36:02;;;;;;;3.70;2.90;;;;;;;12.38;51.02;100621.82;110301;1271;22128;-70
2023/05/29 00:38:29;;;;;;;5.30;2.30;;;;;;;12.27;51.48;100621.72;110073;1277;22209;-70
2023/05/29 00:40:58;;;;;;;3.60;2.70;;;;;;;12.18;52.01;100621.44;109954;1278;137600;-70
2023/05/29 00:43:27;;;;;;;5.20;3.00;;;;;;;12.14;52.38;100621.08;110072;1270;22322;-70
2023/05/29 00:45:54;;;;;;;3.90;2.40;;;;;;;12.09;52.95;100619.25;109908;1273;138083;-69
2023/05/29 00:48:22;;;;;;;6.10;2.30;;;;;;;12.06;53.83;100616.08;109999;1271;138490;-69
2023/05/29 00:50:50;;;;;;;5.50;2.40;;;;;;;12.05;53.91;100614.26;110303;1255;22248;-68
2023/05/29 00:53:19;;;;;;;5.70;2.50;;;;;;;12.02;54.17;100612.20;110062;1274;138526;-68
2023/05/29 00:55:46;;;;;;;3.40;2.40;;;;;;;11.98;54.75;100611.23;110220;1260;22140;-69
2023/05/29 00:58:14;;;;;;;2.60;2.30;;;;;;;11.95;53.33;100612.55;110115;1276;137189;-68
2023/05/29 01:00:42;;;;;;;3.40;2.90;;;;;;;11.94;52.90;100612.47;110091;1271;140033;-67
2023/05/29 01:03:14;;;;;;;4.20;2.90;;;;;;;11.93;53.15;100613.11;110298;1271;22329;-69
2023/05/29 01:05:42;;;;;;;7.30;3.60;;;;;;;11.87;52.91;100614.70;110123;1271;138668;-69
2023/05/29 01:08:10;;;;;;;3.80;2.60;;;;;;;11.83;53.33;100614.54;110012;1260;139237;-70
2023/05/29 01:10:38;;;;;;;4.40;2.70;;;;;;;11.78;53.68;100617.90;110320;1276;22121;-68
2023/05/29 01:13:19;;;;;;;5.70;3.70;;;;;;;11.71;53.74;100615.40;109998;1272;137296;-68
2023/05/29 01:16:12;;;;;;;2.40;2.00;;;;;;;11.70;53.86;100624.79;110240;1265;22106;-70
2023/05/29 01:19:06;;;;;;;2.50;2.30;;;;;;;11.63;54.19;100620.32;110298;1271;22950;-67
2023/05/29 01:21:55;;;;;;;3.20;2.50;;;;;;;11.56;54.63;100623.52;110231;1273;138125;-67
2023/05/29 01:24:37;;;;;;;5.10;2.10;;;;;;;11.48;54.50;100623.73;110233;1276;138999;-69
2023/05/29 01:27:10;;;;;;;3.40;3.10;;;;;;;11.34;55.14;100612.17;110304;1276;22205;-69
2023/05/29 01:29:39;;;;;;;4.70;2.80;;;;;;;11.35;55.54;100622.34;110244;1276;138268;-68
2023/05/29 01:32:07;;;;;;;6.60;3.40;;;;;;;11.32;55.56;100624.44;110243;1271;139050;-69
2023/05/29 01:34:35;;;;;;;5.60;2.60;;;;;;;11.33;55.64;100630.23;110238;1271;22236;-69
2023/05/29 01:37:02;;;;;;;4.10;3.10;;;;;;;11.34;56.10;100634.02;110215;1270;138304;-69
2023/05/29 01:39:33;;;;;;;6.00;3.10;;;;;;;11.33;56.37;100637.29;110227;1269;22387;-69
2023/05/29 01:42:01;;;;;;;5.90;3.10;;;;;;;11.30;56.76;100636.97;110229;1270;137345;-69
2023/05/29 01:44:29;;;;;;;3.80;2.20;;;;;;;11.26;57.16;100638.65;110244;1269;138629;-68
2023/05/29 01:46:57;;;;;;;3.30;3.00;;;;;;;11.23;57.22;100641.69;110368;1274;22218;-69
2023/05/29 01:49:29;;;;;;;3.60;3.00;;;;;;;11.23;57.08;100641.52;110212;1270;138468;-68
2023/05/29 01:51:56;;;;;;;3.20;2.90;;;;;;;11.22;57.33;100645.80;110213;1271;22348;-68
2023/05/29 01:54:23;;;;;;;5.60;3.00;;;;;;;11.17;58.12;100642.05;110224;1259;137197;-69
2023/05/29 01:56:51;;;;;;;4.50;3.00;;;;;;;11.17;58.35;100644.66;110096;1276;137528;-70
2023/05/29 01:59:20;;;;;;;4.50;2.70;;;;;;;11.15;58.68;100649.66;110211;1274;22326;-68
2023/05/29 02:01:48;;;;;;;2.30;2.10;;;;;;;11.14;58.45;100652.46;110123;1272;138685;-68
2023/05/29 02:04:15;;;;;;;4.40;3.20;;;;;;;11.15;56.27;100652.77;110117;1267;139384;-63
2023/05/29 02:06:42;;;;;;;2.90;2.20;;;;;;;11.19;56.66;100653.48;110209;1271;23652;-66
2023/05/29 02:09:10;;;;;;;5.10;3.50;;;;;;;11.18;56.47;100653.23;110295;1269;137575;-66
2023/05/29 02:11:37;;;;;;;3.90;2.20;;;;;;;11.18;56.68;100658.23;110471;1258;23082;-66
2023/05/29 02:14:05;;;;;;;5.80;3.30;;;;;;;11.14;57.58;100662.54;110204;1272;137759;-66
2023/05/29 02:16:33;;;;;;;4.30;2.50;;;;;;;11.08;58.33;100659.83;110111;1272;138364;-64
2023/05/29 02:19:02;;;;;;;4.40;2.40;;;;;;;11.04;58.78;100661.41;110246;1271;22427;-65
2023/05/29 02:21:29;;;;;;;4.70;2.50;;;;;;;11.01;58.98;100663.34;110295;1257;137851;-65
2023/05/29 02:23:56;;;;;;;8.00;2.40;;;;;;;11.03;58.74;100661.19;110349;1276;22106;-70
2023/05/29 02:26:24;;;;;;;3.00;2.70;;;;;;;11.15;57.84;100661.88;110129;1273;138749;-66
2023/05/29 02:28:51;;;;;;;2.70;2.50;;;;;;;11.34;57.57;100660.98;110233;1274;138629;-67
2023/05/29 02:31:20;;;;;;;2.40;2.20;;;;;;;11.49;57.88;100661.77;110337;1276;23872;-64
2023/05/29 02:33:48;;;;;;;3.30;2.70;;;;;;;11.56;57.71;100658.40;110347;1276;137339;-66
2023/05/29 02:36:16;;;;;;;3.10;2.80;;;;;;;11.66;57.64;100655.06;110083;1276;139189;-64
2023/05/29 02:38:43;;;;;;;3.20;2.90;;;;;;;11.87;57.32;100654.58;110331;1271;22204;-65
2023/05/29 02:41:11;;;;;;;5.40;1.90;;;;;;;12.09;56.20;100650.54;110123;1272;138786;-64
2023/05/29 02:43:38;;;;;;;10.80;2.60;;;;;;;12.18;55.86;100650.47;110290;1271;22682;-64
2023/05/29 02:46:06;;;;;;;3.60;2.60;;;;;;;12.20;55.81;100649.33;110239;1276;138038;-65
2023/05/29 02:48:33;;;;;;;4.80;2.80;;;;;;;12.26;55.66;100650.70;110229;1276;141960;-66
2023/05/29 02:51:01;;;;;;;4.90;2.40;;;;;;;12.44;55.22;100651.65;110320;1270;22411;-66
2023/05/29 02:53:28;;;;;;;2.70;2.40;;;;;;;12.80;54.61;100644.42;110296;1276;138570;-67
2023/05/29 02:55:55;;;;;;;2.20;1.80;;;;;;;13.32;53.84;100642.92;110383;1273;22267;-66
2023/05/29 02:58:23;;;;;;;4.30;2.80;;;;;;;13.81;50.85;100640.00;110316;1270;137467;-67
2023/05/29 03:00:50;;;;;;;2.80;2.30;;;;;;;14.29;49.27;100641.77;110109;1272;138545;-68
2023/05/29 03:03:17;;;;;;;3.80;2.50;;;;;;;14.72;48.28;100643.48;110424;1269;22214;-68
2023/05/29 03:05:46;;;;;;;2.40;2.00;;;;;;;15.10;46.07;100641.42;110238;1270;138021;-65
2023/05/29 03:08:14;;;;;;;1.80;1.70;;;;;;;15.33;44.98;100641.97;110218;1276;138089;-68
2023/05/29 03:10:43;;;;;;;3.30;2.30;;;;;;;15.58;44.32;100642.62;110094;1275;22839;-69
2023/05/29 03:13:11;;;;;;;3.70;2.30;;;;;;;15.90;43.44;100643.60;110339;1269;137794;-67
2023/05/29 03:15:40;;;;;;;2.70;2.40;;;;;;;16.18;42.97;100636.96;110245;1269;22098;-69
2023/05/29 03:18:07;;;;;;;2.70;2.30;;;;;;;16.52;42.15;100633.55;110192;1259;137556;-67
2023/05/29 03:20:36;;;;;;;4.60;2.60;;;;;;;16.85;41.36;100633.79;110099;1272;139060;-68
2023/05/29 03:23:03;;;;;;;4.70;2.50;;;;;;;17.20;41.06;100636.48;110154;1272;22415;-68
2023/05/29 03:25:32;;;;;;;6.40;2.60;;;;;;;17.58;40.65;100636.20;110153;1269;138642;-66
2023/05/29 03:28:00;;;;;;;4.00;2.10;;;;;;;17.94;39.76;100637.01;110411;1276;22242;-68
2023/05/29 03:30:27;;;;;;;3.70;2.30;;;;;;;18.26;39.23;100641.84;110162;1271;138462;-66
2023/05/29 03:32:54;;;;;;;5.30;2.50;;;;;;;18.58;38.84;100637.77;110263;1269;138152;-67
2023/05/29 03:35:30;;;;;;;5.80;2.20;;;;;;;18.89;38.26;100639.27;110166;1272;22333;-69
2023/05/29 03:37:57;;;;;;;3.20;2.10;;;;;;;19.14;37.69;100640.14;110208;1271;139980;-67
2023/05/29 03:40:25;;;;;;;2.30;2.00;;;;;;;19.34;37.44;100639.46;110099;1276;138264;-67
2023/05/29 03:42:52;;;;;;;2.50;2.20;;;;;;;19.53;37.12;100641.34;110266;1273;22696;-69
2023/05/29 03:45:19;;;;;;;2.40;2.20;;;;;;;19.72;36.76;100640.86;110221;1269;139324;-68
2023/05/29 03:47:47;;;;;;;4.00;2.60;;;;;;;19.84;36.67;100642.15;110329;1272;22294;-68
2023/05/29 03:50:15;;;;;;;2.70;2.30;;;;;;;19.94;36.42;100643.07;110125;1277;137677;-68
2023/05/29 03:52:43;;;;;;;2.70;2.40;;;;;;;20.06;36.23;100645.23;110232;1270;138401;-68
2023/05/29 03:55:12;;;;;;;2.20;2.10;;;;;;;20.26;36.18;100643.09;110244;1272;22345;-69
2023/05/29 03:57:41;;;;;;;4.10;1.90;;;;;;;20.45;35.93;100649.73;110100;1276;137601;-67
2023/05/29 04:00:10;;;;;;;2.70;1.90;;;;;;;20.72;35.99;100635.43;110144;1272;138939;-67
2023/05/29 04:02:40;;;;;;;4.90;2.20;;;;;;;21.21;34.65;100647.49;110178;1269;22421;-69
2023/05/29 04:05:12;;;;;;;3.90;2.30;;;;;;;21.47;34.34;100642.23;109986;1269;138110;-67
2023/05/29 04:07:41;;;;;;;4.20;2.10;;;;;;;21.70;33.99;100643.33;110014;1269;23250;-69
2023/05/29 04:10:09;;;;;;;2.00;1.30;;;;;;;21.87;33.21;100643.06;109861;1262;137976;-65
2023/05/29 04:12:37;;;;;;;1.90;1.70;;;;;;;21.95;32.95;100640.48;110165;1269;141333;-66
2023/05/29 04:15:05;;;;;;;5.90;2.10;;;;;;;22.07;33.08;100638.27;110217;1269;23113;-69
2023/05/29 04:17:32;;;;;;;2.50;1.60;;;;;;;22.34;32.99;100645.79;110207;1269;137814;-68
2023/05/29 04:20:05;;;;;;;6.20;1.70;;;;;;;22.59;32.57;100641.14;110216;1269;22562;-68
2023/05/29 04:22:34;;;;;;;2.60;1.50;;;;;;;22.84;31.96;100641.52;110210;1269;22330;-68
2023/05/29 04:25:03;;;;;;;3.20;1.70;;;;;;;22.92;31.71;100643.04;110092;1269;139084;-66
2023/05/29 04:27:37;;;;;;;4.10;1.60;;;;;;;22.96;31.96;100645.67;110035;1269;22310;-67
2023/05/29 04:30:08;;;;;;;3.40;1.90;;;;;;;23.12;31.58;100641.05;109976;1269;139715;-69
2023/05/29 04:32:41;;;;;;;2.60;1.70;;;;;;;23.26;31.44;100647.81;109893;1269;138842;-71
2023/05/29 04:35:09;;;;;;;1.70;1.30;;;;;;;23.41;31.24;100651.02;110223;1269;22332;-69
2023/05/29 04:37:40;;;;;;;2.60;1.20;;;;;;;23.66;30.68;100648.70;109903;1269;139095;-66
2023/05/29 04:40:09;;;;;;;3.60;1.10;;;;;;;23.88;30.07;100644.70;109964;1269;139532;-68
2023/05/29 04:42:37;;;;;;;2.90;1.70;;;;;;;24.06;29.99;100640.27;110257;1267;23083;-70
2023/05/29 04:45:05;;;;;;;1.90;0.90;;;;;;;24.29;29.73;100639.71;110212;1269;138164;-73
2023/05/29 04:47:36;;;;;;;3.20;1.10;;;;;;;24.36;29.42;100640.05;110023;1269;22345;-69
2023/05/29 04:50:04;;;;;;;3.50;1.00;;;;;;;24.35;29.05;100640.16;110003;1269;137539;-69
2023/05/29 04:52:32;;;;;;;3.80;0.70;;;;;;;24.41;29.08;100642.55;109937;1269;138977;-70
2023/05/29 04:55:00;;;;;;;1.50;1.10;;;;;;;24.46;29.50;100637.06;109935;1269;22342;-71
2023/05/29 04:57:27;;;;;;;1.10;0.80;;;;;;;24.48;28.29;100638.38;109864;1269;138869;-71
2023/05/29 04:59:55;;;;;;;7.30;0.90;;;;;;;24.43;27.76;100649.05;109999;1264;22368;-70
2023/05/29 05:02:22;;;;;;;0.80;0.60;;;;;;;24.34;27.68;100652.36;110024;1270;137523;-73
2023/05/29 05:04:50;;;;;;;3.40;0.80;;;;;;;24.23;27.74;100653.83;109949;1261;140247;-71
2023/05/29 05:07:17;;;;;;;4.20;0.80;;;;;;;24.02;28.01;100652.13;110107;1259;22409;-74
2023/05/29 05:09:45;;;;;;;5.80;1.20;;;;;;;23.91;28.39;100648.95;110099;1269;137673;-70
2023/05/29 05:12:18;;;;;;;3.60;0.90;;;;;;;23.90;28.42;100638.38;110095;1269;138290;-76
2023/05/29 05:14:46;;;;;;;1.40;1.00;;;;;;;23.99;28.18;100641.73;110227;1271;22320;-70
2023/05/29 05:17:14;;;;;;;1.10;1.00;;;;;;;24.07;28.34;100641.23;109958;1269;137473;-72
2023/05/29 05:19:41;;;;;;;1.40;0.70;;;;;;;24.13;28.38;100638.24;110280;1266;23131;-72
2023/05/29 05:22:09;;;;;;;5.70;0.90;;;;;;;24.12;28.06;100640.42;110110;1269;137462;-70
2023/05/29 05:24:38;;;;;;;2.10;0.90;;;;;;;24.13;28.03;100641.14;109887;1269;139218;-70
2023/05/29 05:27:06;;;;;;;4.10;0.90;;;;;;;24.14;28.16;100644.56;110191;1269;23039;-73
2023/05/29 05:29:34;;;;;;;4.30;1.00;;;;;;;24.28;28.28;100640.33;110059;1269;137653;-73
2023/05/29 05:32:01;;;;;;;1.70;1.00;;;;;;;24.43;28.01;100644.89;109984;1269;22332;-74
2023/05/29 05:34:28;;;;;;;6.20;0.40;;;;;;;24.60;27.19;100647.73;110029;1269;138903;-72
2023/05/29 05:36:56;;;;;;;4.20;0.30;;;;;;;24.72;26.59;100648.27;110135;1269;138086;-71
2023/05/29 05:39:23;;;;;;;1.50;0.50;;;;;;;24.82;26.37;100645.23;110160;1269;22354;-72
2023/05/29 05:41:51;;;;;;;1.30;0.50;;;;;;;24.78;26.15;100643.63;109968;1269;138789;-74
2023/05/29 05:44:34;;;;;;;2.60;0.50;;;;;;;24.53;26.61;100650.90;109950;1269;138278;-73
2023/05/29 05:47:08;;;;;;;2.70;0.20;;;;;;;24.55;26.56;100658.52;110166;1269;22343;-72
2023/05/29 05:49:36;;;;;;;0.70;0.30;;;;;;;24.76;26.04;100658.89;109925;1262;138505;-73
2023/05/29 05:52:03;;;;;;;3.20;0.20;;;;;;;24.89;25.72;100656.34;110044;1269;138313;-72
2023/05/29 05:54:30;;;;;;;1.50;0.20;;;;;;;24.96;25.28;100651.92;110171;1269;22346;-74
2023/05/29 05:56:58;;;;;;;5.20;0.30;;;;;;;25.10;25.36;100654.39;110113;1269;137802;-73
2023/05/29 05:59:25;;;;;;;0.70;0.20;;;;;;;25.27;25.34;100656.20;110090;1265;22415;-73
2023/05/29 06:01:53;;;;;;;5.30;0.20;;;;;;;25.35;24.93;100655.41;110139;1257;138080;-74
2023/05/29 06:04:20;;;;;;;1.40;0.30;;;;;;;25.41;24.73;100650.96;110196;1260;141582;-73
2023/05/29 06:06:47;;;;;;;3.10;0.30;;;;;;;25.35;24.72;100654.55;110263;1269;22327;-74
2023/05/29 06:09:15;;;;;;;5.30;0.20;;;;;;;25.31;25.31;100655.27;110050;1256;138092;-73
2023/05/29 06:11:44;;;;;;;0.60;0.10;;;;;;;25.39;25.37;100654.42;110250;1261;22411;-74
2023/05/29 06:14:12;;;;;;;0.50;0.20;;;;;;;25.41;25.09;100655.55;110128;1269;138993;-73
2023/05/29 06:16:39;;;;;;;2.30;0.20;;;;;;;25.20;25.30;100655.84;110050;1269;139080;-74
2023/05/29 06:19:08;;;;;;;5.70;0.50;;;;;;;24.95;25.73;100655.91;110128;1269;22331;-74
2023/05/29 06:21:57;;;;;;;1.50;0.10;;;;;;;24.90;25.65;100659.23;109978;1269;137469;-73
2023/05/29 06:24:26;;;;;;;1.90;0.20;;;;;;;24.86;25.21;100659.58;110149;1269;139626;-74
2023/05/29 06:26:54;;;;;;;2.30;0.20;;;;;;;24.80;25.68;100662.70;110261;1269;22458;-71
2023/05/29 06:29:21;;;;;;;3.80;0.30;;;;;;;24.91;25.76;100665.34;110145;1269;138278;-73
2023/05/29 06:31:50;;;;;;;1.60;0.30;;;;;;;25.03;25.30;100657.78;110161;1272;22410;-73
2023/05/29 06:34:18;;;;;;;0.40;0.10;;;;;;;25.07;25.02;100654.77;109811;1272;139496;-73
2023/05/29 06:36:46;;;;;;;1.00;0.30;;;;;;;25.04;24.92;100652.66;110057;1269;137707;-72
2023/05/29 06:39:15;;;;;;;3.00;0.20;;;;;;;24.90;25.35;100652.05;110281;1270;22337;-77
2023/05/29 06:41:45;;;;;;;0.70;0.20;;;;;;;24.83;25.46;100655.33;110130;1269;138475;-73
2023/05/29 06:44:17;;;;;;;2.70;0.10;;;;;;;24.87;25.10;100652.34;109743;1269;141093;-72
2023/05/29 06:46:44;;;;;;;0.90;0.10;;;;;;;24.94;25.17;100647.39;110185;1261;22368;-72
2023/05/29 06:49:12;;;;;;;0.30;0.20;;;;;;;25.03;25.18;100650.77;110066;1269;137711;-71
2023/05/29 06:51:41;;;;;;;2.70;0.20;;;;;;;24.94;24.76;100644.56;110321;1269;22326;-72
2023/05/29 06:54:24;;;;;;;0.70;0.20;;;;;;;24.87;24.97;100642.18;110116;1269;138269;-73
2023/05/29 06:56:52;;;;;;;1.90;0.20;;;;;;;24.92;25.47;100638.30;110182;1269;138399;-71
2023/05/29 06:59:36;;;;;;;0.50;0.20;;;;;;;24.97;25.32;100640.73;110218;1269;22347;-71
2023/05/29 07:02:05;;;;;;;1.50;0.10;;;;;;;24.80;25.18;100639.63;110024;1269;137454;-73
2023/05/29 07:04:33;;;;;;;4.90;0.10;;;;;;;24.54;25.42;100630.67;109980;1259;138667;-71
2023/05/29 07:07:00;;;;;;;0.40;0.10;;;;;;;24.44;25.12;100630.56;110359;1269;23120;-74
2023/05/29 07:09:28;;;;;;;2.40;0.20;;;;;;;24.49;25.65;100634.88;110007;1262;139385;-76
2023/05/29 07:11:55;;;;;;;1.10;0.10;;;;;;;24.61;25.31;100630.80;110174;1269;22960;-75
2023/05/29 07:14:23;;;;;;;1.00;0.10;;;;;;;24.64;25.75;100622.45;109821;1269;137382;-73
2023/05/29 07:16:51;;;;;;;1.80;0.10;;;;;;;24.77;25.18;100620.35;109991;1270;137889;-72
2023/05/29 07:19:18;;;;;;;1.30;0.10;;;;;;;24.86;24.79;100620.98;110086;1269;22357;-72
2023/05/29 07:21:48;;;;;;;1.20;0.30;;;;;;;24.79;24.80;100617.29;109980;1269;138468;-70
2023/05/29 07:24:22;;;;;;;3.50;0.20;;;;;;;24.69;24.74;100619.21;109928;1269;138199;-73
2023/05/29 07:26:50;;;;;;;2.00;0.10;;;;;;;24.65;24.32;100626.53;110228;1269;22314;-72
2023/05/29 07:29:20;;;;;;;1.20;0.10;;;;;;;24.65;24.32;100621.20;110034;1269;139303;-70
2023/05/29 07:31:48;;;;;;;0.20;0.10;;;;;;;24.58;24.36;100620.39;110020;1269;22357;-73
2023/05/29 07:34:26;;;;;;;0.80;0.10;;;;;;;24.39;24.07;100622.94;109902;1276;138280;-73
2023/05/29 07:37:06;;;;;;;0.40;0.30;;;;;;;24.09;24.06;100634.27;109935;1270;138356;-72
2023/05/29 07:39:35;;;;;;;1.00;0.10;;;;;;;23.81;24.31;100628.34;110029;1269;22430;-77
2023/05/29 07:42:10;;;;;;;2.50;0.10;;;;;;;23.51;24.65;100624.98;110023;1269;138700;-72
2023/05/29 07:44:41;;;;;;;1.30;0.60;;;;;;;23.33;25.27;100624.71;110012;1269;137997;-73
2023/05/29 07:47:10;;;;;;;1.80;0.40;;;;;;;23.18;25.20;100632.70;110121;1269;22942;-75
2023/05/29 07:49:41;;;;;;;1.60;0.20;;;;;;;23.01;24.83;100632.45;109939;1269;137826;-74
2023/05/29 07:52:09;;;;;;;0.50;0.20;;;;;;;22.86;25.19;100635.50;110150;1262;138722;-76
2023/05/29 07:54:36;;;;;;;4.40;0.10;;;;;;;22.73;25.14;100639.45;110027;1269;22329;-75
2023/05/29 07:57:09;;;;;;;3.30;0.10;;;;;;;22.61;25.52;100639.59;110036;1269;137989;-71
2023/05/29 07:59:41;;;;;;;2.50;0.30;;;;;;;22.36;25.84;100636.79;110113;1269;22364;-74
2023/05/29 08:02:08;;;;;;;1.40;0.60;;;;;;;22.04;26.13;100642.52;110031;1269;139589;-76
2023/05/29 08:04:43;;;;;;;2.60;0.20;;;;;;;21.81;26.52;100638.77;109834;1262;139610;-74
2023/05/29 08:07:11;;;;;;;0.90;0.60;;;;;;;21.69;27.06;100633.55;110175;1273;22981;-75
2023/05/29 08:09:38;;;;;;;5.20;0.50;;;;;;;21.60;27.24;100634.80;110113;1269;138285;-75
2023/05/29 08:12:06;;;;;;;0.70;0.30;;;;;;;21.57;27.30;100632.06;110119;1272;138271;-76
2023/05/29 08:14:33;;;;;;;0.50;0.20;;;;;;;21.55;27.19;100627.54;110219;1269;22316;-72
2023/05/29 08:17:02;;;;;;;1.50;0.10;;;;;;;21.35;27.31;100622.07;110102;1269;137928;-76
2023/05/29 08:19:30;;;;;;;2.00;0.20;;;;;;;21.14;27.50;100620.55;110242;1270;22103;-74
2023/05/29 08:21:57;;;;;;;0.60;0.20;;;;;;;21.05;27.51;100623.01;109986;1269;138651;-74
2023/05/29 08:24:24;;;;;;;3.70;0.20;;;;;;;21.07;27.43;100619.21;110107;1269;138372;-75
2023/05/29 08:26:52;;;;;;;0.50;0.10;;;;;;;21.08;27.57;100612.17;110203;1269;23285;-76
2023/05/29 08:29:19;;;;;;;1.80;0.40;;;;;;;21.07;27.71;100609.41;110157;1260;138643;-77
2023/05/29 08:31:47;;;;;;;1.90;0.20;;;;;;;21.07;27.84;100602.27;110217;1269;22536;-73
2023/05/29 08:34:14;;;;;;;0.70;0.20;;;;;;;21.13;27.68;100603.15;109998;1254;138871;-76
2023/05/29 08:36:42;;;;;;;0.90;0.20;;;;;;;21.22;27.74;100604.52;110096;1269;138983;-78
2023/05/29 08:39:09;;;;;;;2.00;0.10;;;;;;;21.30;27.87;100605.63;110011;1269;23683;-74
2023/05/29 08:41:49;;;;;;;3.10;0.10;;;;;;;21.36;27.84;100607.23;110065;1270;137689;-76
2023/05/29 08:44:21;;;;;;;2.70;0.20;;;;;;;21.41;27.42;100600.72;110126;1269;138992;-73
2023/05/29 08:46:55;;;;;;;0.60;0.20;;;;;;;21.39;27.37;100595.33;110145;1270;22512;-75
2023/05/29 08:49:23;;;;;;;0.90;0.20;;;;;;;21.36;27.73;100594.38;110058;1273;138255;-78
2023/05/29 08:52:14;;;;;;;1.30;0.40;;;;;;;21.32;28.02;100583.27;110203;1269;22380;-76
2023/05/29 08:54:41;;;;;;;1.10;0.10;;;;;;;21.42;27.60;100593.73;109887;1269;22387;-76
2023/05/29 08:57:11;;;;;;;2.80;0.20;;;;;;;21.38;27.73;100594.28;109942;1269;138266;-77
2023/05/29 08:59:43;;;;;;;3.00;0.20;;;;;;;21.39;27.66;100590.77;110188;1269;23162;-74
2023/05/29 09:02:14;;;;;;;2.40;0.10;;;;;;;21.43;27.55;100597.21;110032;1269;137586;-75
2023/05/29 09:04:47;;;;;;;0.20;0.10;;;;;;;21.46;26.94;100597.16;110120;1269;138353;-77
2023/05/29 09:07:17;;;;;;;0.70;0.20;;;;;;;21.40;27.03;100590.06;110094;1268;22354;-77
2023/05/29 09:09:45;;;;;;;2.20;0.10;;;;;;;21.36;26.98;100586.73;109954;1269;137779;-75
2023/05/29 09:12:14;;;;;;;0.50;0.20;;;;;;;21.30;26.69;100584.77;110126;1260;137975;-76
2023/05/29 09:14:42;;;;;;;2.30;0.30;;;;;;;21.19;27.02;100580.95;110128;1269;22297;-76
2023/05/29 09:17:11;;;;;;;2.60;0.10;;;;;;;21.11;27.41;100573.15;110263;1269;139379;-75
2023/05/29 09:19:42;;;;;;;2.10;0.20;;;;;;;21.12;27.43;100570.79;110305;1269;22485;-79
2023/05/29 09:22:14;;;;;;;2.40;0.10;;;;;;;21.20;27.72;100577.10;109771;1269;138370;-73
2023/05/29 09:24:46;;;;;;;1.60;0.20;;;;;;;21.28;28.14;100571.61;110254;1267;138164;-77
2023/05/29 09:27:13;;;;;;;0.90;0.40;;;;;;;21.24;28.41;100559.79;110219;1269;22429;-77
2023/05/29 09:29:42;;;;;;;2.00;0.10;;;;;;;21.26;28.43;100563.13;109954;1269;138420;-74
2023/05/29 09:32:11;;;;;;;0.80;0.20;;;;;;;21.25;28.58;100560.41;110100;1261;138099;-76
2023/05/29 09:34:39;;;;;;;1.20;0.10;;;;;;;21.27;28.97;100556.52;110207;1270;22343;-74
2023/05/29 09:37:10;;;;;;;0.50;0.10;;;;;;;21.37;28.80;100557.13;109881;1269;137543;-72
2023/05/29 09:39:41;;;;;;;1.30;0.10;;;;;;;21.47;27.81;100567.73;110021;1269;22310;-73
2023/05/29 09:42:12;;;;;;;3.30;0.20;;;;;;;21.53;27.65;100564.42;110049;1269;138820;-74
2023/05/29 09:44:46;;;;;;;2.70;0.10;;;;;;;21.54;27.58;100566.28;109936;1268;139433;-75
2023/05/29 09:47:16;;;;;;;1.50;0.10;;;;;;;21.48;27.66;100557.44;110019;1269;23140;-76
2023/05/29 09:49:48;;;;;;;1.70;0.20;;;;;;;21.44;27.65;100553.96;110029;1269;137819;-74
2023/05/29 09:52:21;;;;;;;3.70;0.20;;;;;;;21.47;27.29;100550.59;110056;1269;139721;-76
2023/05/29 09:54:50;;;;;;;2.20;0.10;;;;;;;21.47;27.02;100537.41;109927;1269;22332;-74
2023/05/29 09:57:18;;;;;;;0.80;0.10;;;;;;;21.49;27.19;100536.30;109899;1269;138475;-75
2023/05/29 09:59:50;;;;;;;1.10;0.10;;;;;;;21.53;27.09;100531.83;110135;1270;22354;-75
2023/05/29 10:02:19;;;;;;;1.00;0.10;;;;;;;21.48;27.08;100526.68;109925;1270;140106;-75
2023/05/29 10:04:49;;;;;;;0.50;0.20;;;;;;;21.39;27.35;100524.41;110089;1270;139404;-76
2023/05/29 10:07:28;;;;;;;2.00;0.20;;;;;;;21.40;27.36;100520.61;110230;1260;22340;-74
2023/05/29 10:10:01;;;;;;;3.00;0.30;;;;;;;21.38;27.45;100514.90;110056;1269;138965;-77
2023/05/29 10:12:33;;;;;;;1.00;0.10;;;;;;;21.38;27.63;100512.12;110030;1269;137744;-76
2023/05/29 10:15:02;;;;;;;1.80;0.10;;;;;;;21.46;27.60;100519.16;110134;1259;22296;-72
2023/05/29 10:17:34;;;;;;;1.40;0.20;;;;;;;21.58;27.03;100517.88;109956;1269;138788;-76
2023/05/29 10:20:06;;;;;;;3.60;0.10;;;;;;;21.68;26.85;100514.23;110118;1269;22355;-75
2023/05/29 10:22:40;;;;;;;2.00;0.20;;;;;;;21.74;26.99;100513.97;110254;1270;22328;-74
2023/05/29 10:25:10;;;;;;;2.20;0.10;;;;;;;21.80;26.85;100525.52;110124;1269;140534;-76
2023/05/29 10:27:39;;;;;;;2.90;0.20;;;;;;;21.84;26.46;100514.54;110222;1270;22320;-74
2023/05/29 10:30:21;;;;;;;0.50;0.10;;;;;;;21.88;26.50;100516.67;110139;1264;138330;-74
2023/05/29 10:33:14;;;;;;;3.20;0.40;;;;;;;21.89;26.35;100523.52;110029;1273;139633;-78
2023/05/29 10:35:55;;;;;;;4.20;0.60;;;;;;;21.89;26.27;100517.07;110010;1273;22328;-78
2023/05/29 10:38:24;;;;;;;1.30;0.10;;;;;;;21.87;26.50;100511.23;109887;1272;138347;-73
2023/05/29 10:40:52;;;;;;;1.30;0.30;;;;;;;21.87;26.31;100515.86;110135;1270;138614;-64
2023/05/29 10:43:33;;;;;;;2.00;0.20;;;;;;;21.90;26.25;100511.64;110234;1270;22309;-72
2023/05/29 10:46:02;;;;;;;1.40;0.20;;;;;;;21.93;26.21;100504.08;110101;1269;137743;-73
2023/05/29 10:48:36;;;;;;;2.50;0.30;;;;;;;21.94;26.31;100517.59;110064;1269;139510;-73
2023/05/29 10:51:08;;;;;;;3.10;0.10;;;;;;;21.98;26.22;100522.71;110234;1269;22347;-72
2023/05/29 10:53:40;;;;;;;1.70;0.20;;;;;;;21.98;26.27;100516.48;110139;1271;138237;-69
2023/05/29 10:56:10;;;;;;;4.00;0.10;;;;;;;21.96;26.14;100508.37;110081;1270;139730;-74
2023/05/29 10:58:38;;;;;;;2.40;0.10;;;;;;;21.95;26.33;100504.52;110202;1270;22456;-73
2023/05/29 11:04:25;;;;;;;1.70;0.20;;;;;;;22.05;26.51;100501.66;104167;1298;545725;-73
2023/05/29 11:06:53;;;;;;;1.60;0.10;;;;;;;22.08;26.69;100506.72;105648;1275;23875;-72
2023/05/29 11:09:26;;;;;;;3.50;0.20;;;;;;;22.07;26.66;100502.27;105387;1285;138872;-71
2023/05/29 11:12:35;;;;;;;0.90;0.20;;;;;;;22.06;26.87;100493.90;105624;1282;22559;-69
2023/05/29 11:15:09;;;;;;;0.50;0.10;;;;;;;22.11;26.64;100496.98;105599;1284;22532;-72
2023/05/29 11:17:37;;;;;;;1.80;0.30;;;;;;;22.08;26.63;100501.35;105596;1282;186265;-72
2023/05/29 11:20:07;;;;;;;1.00;0.20;;;;;;;22.03;26.74;100490.83;105621;1282;138097;-73
2023/05/29 11:23:06;;;;;;;2.00;0.10;;;;;;;21.96;26.66;100486.06;105626;1283;22805;-76
2023/05/29 11:25:37;;;;;;;1.70;0.30;;;;;;;21.95;26.51;100477.17;105597;1285;137453;-74
2023/05/29 11:28:09;;;;;;;0.60;0.10;;;;;;;21.95;26.65;100475.11;105403;1283;138106;-73